createdAt,value
2022-10-13T00:00:52.210Z,9.57
2022-10-13T00:03:55.359Z,9.53
2022-10-13T00:06:58.705Z,9.62
2022-10-13T00:10:02.065Z,9.56
2022-10-13T00:13:04.992Z,9.54
2022-10-13T00:16:10.592Z,9.47
2022-10-13T00:19:15.150Z,9.51
2022-10-13T00:22:18.318Z,9.45
2022-10-13T00:25:21.740Z,9.52
2022-10-13T00:28:25.397Z,9.48
2022-10-13T00:31:33.285Z,9.53
2022-10-13T00:34:37.971Z,9.53
2022-10-13T00:37:40.837Z,9.43
2022-10-13T00:40:48.043Z,9.41
2022-10-13T00:44:00.178Z,9.40
2022-10-13T00:47:04.474Z,9.45
2022-10-13T00:50:11.553Z,9.36
2022-10-13T00:53:17.772Z,9.37
2022-10-13T00:56:23.057Z,9.33
2022-10-13T00:59:29.357Z,9.31
2022-10-13T01:02:37.844Z,9.40
2022-10-13T01:05:43.245Z,9.31
2022-10-13T01:08:46.112Z,9.17
2022-10-13T01:12:04.688Z,9.13
2022-10-13T01:15:14.423Z,9.20
2022-10-13T01:18:27.702Z,9.31
2022-10-13T01:21:36.807Z,9.21
2022-10-13T01:24:47.839Z,9.23
2022-10-13T01:28:09.994Z,9.25
2022-10-13T01:31:21.665Z,9.33
2022-10-13T01:34:32.067Z,9.25
2022-10-13T01:37:45.316Z,9.29
2022-10-13T01:40:55.613Z,9.19
2022-10-13T01:44:07.052Z,9.15
2022-10-13T01:47:14.014Z,9.10
2022-10-13T01:50:20.158Z,9.05
2022-10-13T01:53:24.498Z,9.03
2022-10-13T01:56:29.135Z,9.05
2022-10-13T01:59:38.534Z,8.98
2022-10-13T02:02:48.807Z,9.15
2022-10-13T02:05:59.612Z,9.16
2022-10-13T02:09:07.158Z,9.29
2022-10-13T02:12:16.340Z,9.37
2022-10-13T02:15:23.937Z,9.41
2022-10-13T02:18:33.258Z,9.48
2022-10-13T02:21:37.277Z,9.52
2022-10-13T02:24:40.155Z,9.52
2022-10-13T02:27:43.502Z,9.52
2022-10-13T02:30:47.409Z,9.59
2022-10-13T02:33:51.897Z,9.55
2022-10-13T02:36:54.782Z,9.50
2022-10-13T02:39:57.636Z,9.55
2022-10-13T02:43:00.553Z,9.47
2022-10-13T02:46:03.471Z,9.52
2022-10-13T02:49:07.694Z,9.55
2022-10-13T02:52:10.543Z,9.57
2022-10-13T02:55:18.030Z,9.62
2022-10-13T02:58:21.930Z,9.62
2022-10-13T03:01:24.768Z,9.57
2022-10-13T03:04:28.987Z,9.54
2022-10-13T03:07:35.375Z,9.47
2022-10-13T03:10:38.472Z,9.61
2022-10-13T03:13:41.383Z,9.55
2022-10-13T03:16:44.243Z,9.50
2022-10-13T03:19:50.113Z,9.46
2022-10-13T03:22:54.071Z,9.42
2022-10-13T03:25:57.263Z,9.37
2022-10-13T03:29:00.243Z,9.40
2022-10-13T03:32:03.067Z,9.40
2022-10-13T03:35:08.176Z,9.26
2022-10-13T03:38:11.167Z,9.26
2022-10-13T03:41:17.142Z,9.18
2022-10-13T03:44:22.981Z,9.23
2022-10-13T03:47:25.790Z,9.19
2022-10-13T03:50:30.017Z,9.21
2022-10-13T03:53:32.920Z,9.16
2022-10-13T03:56:35.882Z,9.13
2022-10-13T03:59:40.778Z,9.14
2022-10-13T04:02:43.930Z,9.16
2022-10-13T04:05:48.837Z,9.12
2022-10-13T04:08:53.193Z,9.04
2022-10-13T04:11:56.312Z,9.05
2022-10-13T04:14:59.171Z,9.02
2022-10-13T04:18:02.010Z,8.95
2022-10-13T04:21:10.371Z,8.79
2022-10-13T04:24:14.478Z,8.83
2022-10-13T04:27:19.164Z,8.82
2022-10-13T04:30:21.997Z,8.69
2022-10-13T04:33:24.820Z,8.63
2022-10-13T04:36:29.079Z,8.74
2022-10-13T04:39:32.009Z,8.57
2022-10-13T04:42:35.308Z,8.73
2022-10-13T04:45:38.152Z,8.67
2022-10-13T04:48:41.553Z,8.66
2022-10-13T04:51:46.282Z,8.69
2022-10-13T04:54:49.095Z,8.60
2022-10-13T04:57:51.941Z,8.51
2022-10-13T05:00:54.871Z,8.41
2022-10-13T05:03:59.233Z,8.42
2022-10-13T05:07:17.636Z,8.41
2022-10-13T05:10:21.683Z,8.43
2022-10-13T05:13:25.477Z,8.28
2022-10-13T05:16:33.371Z,8.41
2022-10-13T05:19:36.239Z,8.32
2022-10-13T05:22:40.475Z,8.27
2022-10-13T05:25:43.731Z,8.29
2022-10-13T05:28:49.816Z,8.30
2022-10-13T05:31:52.750Z,8.26
2022-10-13T05:34:55.648Z,8.27
2022-10-13T05:37:59.893Z,8.25
2022-10-13T05:41:03.918Z,8.35
2022-10-13T05:44:09.688Z,8.43
2022-10-13T05:47:18.261Z,8.31
2022-10-13T05:50:21.349Z,8.35
2022-10-13T05:53:28.454Z,8.42
2022-10-13T05:56:36.359Z,8.44
2022-10-13T05:59:45.704Z,8.50
2022-10-13T06:02:53.802Z,8.42
2022-10-13T06:05:57.614Z,8.48
2022-10-13T06:09:02.554Z,8.53
2022-10-13T06:12:05.805Z,8.63
2022-10-13T06:15:09.993Z,8.67
2022-10-13T06:18:12.920Z,8.63
2022-10-13T06:21:15.856Z,8.68
2022-10-13T06:24:20.325Z,8.75
2022-10-13T06:27:23.163Z,8.80
2022-10-13T06:30:29.761Z,8.85
2022-10-13T06:33:32.620Z,8.87
2022-10-13T06:36:36.328Z,8.82
2022-10-13T06:39:40.556Z,8.92
2022-10-13T06:42:43.547Z,8.77
2022-10-13T06:45:46.527Z,8.56
2022-10-13T06:48:50.719Z,8.64
2022-10-13T06:51:53.793Z,8.66
2022-10-13T06:54:57.994Z,8.67
2022-10-13T06:58:00.847Z,8.67
2022-10-13T07:01:04.251Z,8.71
2022-10-13T07:04:07.254Z,8.83
2022-10-13T07:07:10.211Z,8.88
2022-10-13T07:10:14.628Z,8.99
2022-10-13T07:13:18.088Z,9.15
2022-10-13T07:16:21.006Z,9.33
2022-10-13T07:19:23.820Z,9.62
2022-10-13T07:22:27.895Z,9.82
2022-10-13T07:25:32.393Z,9.95
2022-10-13T07:28:35.403Z,10.07
2022-10-13T07:31:38.395Z,10.16
2022-10-13T07:34:41.290Z,10.20
2022-10-13T07:37:44.285Z,10.30
2022-10-13T07:40:48.491Z,10.35
2022-10-13T07:43:55.811Z,10.48
2022-10-13T07:46:58.709Z,10.63
2022-10-13T07:50:01.591Z,10.88
2022-10-13T07:53:05.585Z,11.00
2022-10-13T07:56:13.017Z,11.06
2022-10-13T07:59:15.894Z,11.17
2022-10-13T08:02:19.029Z,11.28
2022-10-13T08:05:22.388Z,11.42
2022-10-13T08:08:25.225Z,11.40
2022-10-13T08:11:29.624Z,11.55
2022-10-13T08:14:32.666Z,11.84
2022-10-13T08:17:35.636Z,11.94
2022-10-13T08:20:41.327Z,12.00
2022-10-13T08:23:46.566Z,12.24
2022-10-13T08:26:51.033Z,12.28
2022-10-13T08:29:54.870Z,12.41
2022-10-13T08:32:57.851Z,12.49
2022-10-13T08:36:00.944Z,12.70
2022-10-13T08:39:04.229Z,12.74
2022-10-13T08:42:18.286Z,12.87
2022-10-13T08:45:42.707Z,13.01
2022-10-13T08:48:45.668Z,13.12
2022-10-13T08:51:48.537Z,13.15
2022-10-13T08:54:52.057Z,13.19
2022-10-13T08:57:57.598Z,13.25
2022-10-13T09:01:13.681Z,13.32
2022-10-13T09:04:29.524Z,13.43
2022-10-13T09:07:35.990Z,13.47
2022-10-13T09:10:47.965Z,13.52
2022-10-13T09:13:57.619Z,13.56
2022-10-13T09:17:15.824Z,13.61
2022-10-13T09:20:23.392Z,13.60
2022-10-13T09:23:27.519Z,13.60
2022-10-13T09:26:30.408Z,13.59
2022-10-13T09:29:34.709Z,13.65
2022-10-13T09:32:37.599Z,13.70
2022-10-13T09:35:42.517Z,13.72
2022-10-13T09:39:05.924Z,13.95
2022-10-13T09:42:22.923Z,14.03
2022-10-13T09:45:30.398Z,14.03
2022-10-13T09:48:37.846Z,14.03
2022-10-13T09:51:44.835Z,14.04
2022-10-13T09:54:57.472Z,14.10
2022-10-13T09:58:07.159Z,14.14
2022-10-13T10:01:22.198Z,14.23
2022-10-13T10:04:30.866Z,14.24
2022-10-13T10:07:34.504Z,14.21
2022-10-13T10:10:40.814Z,14.19
2022-10-13T10:13:45.192Z,14.18
2022-10-13T10:16:54.655Z,14.24
2022-10-13T10:20:08.292Z,14.26
2022-10-13T10:23:15.893Z,14.30
2022-10-13T10:26:27.633Z,14.28
2022-10-13T10:29:46.004Z,14.37
2022-10-13T10:32:55.355Z,14.42
2022-10-13T10:36:16.674Z,14.54
2022-10-13T10:39:31.809Z,14.63
2022-10-13T10:42:52.342Z,14.75
2022-10-13T10:45:59.554Z,14.75
2022-10-13T10:49:19.848Z,14.79
2022-10-13T10:52:29.548Z,14.85
2022-10-13T10:55:39.628Z,14.91
2022-10-13T10:58:50.785Z,14.95
2022-10-13T11:02:06.128Z,14.96
2022-10-13T11:05:10.483Z,14.97
2022-10-13T11:08:27.667Z,14.92
2022-10-13T11:11:41.356Z,14.81
2022-10-13T11:14:49.286Z,14.80
2022-10-13T11:17:53.023Z,14.76
2022-10-13T11:21:00.223Z,14.75
2022-10-13T11:24:03.205Z,14.76
2022-10-13T11:27:24.138Z,14.71
2022-10-13T11:30:50.209Z,14.70
2022-10-13T11:33:58.462Z,14.67
2022-10-13T11:37:04.262Z,14.67
2022-10-13T11:40:24.441Z,14.64
2022-10-13T11:43:43.144Z,14.61
2022-10-13T11:47:02.696Z,14.58
2022-10-13T11:50:15.939Z,14.60
2022-10-13T11:53:23.835Z,14.62
2022-10-13T11:56:39.410Z,14.57
2022-10-13T11:59:47.520Z,14.51
2022-10-13T12:02:51.926Z,14.49
2022-10-13T12:06:00.136Z,14.50
2022-10-13T12:09:08.451Z,14.48
2022-10-13T12:12:15.533Z,14.44
2022-10-13T12:15:33.839Z,14.43
2022-10-13T12:18:39.111Z,14.45
2022-10-13T12:21:50.409Z,14.48
2022-10-13T12:25:02.617Z,14.52
2022-10-13T12:28:05.890Z,14.57
2022-10-13T12:31:20.164Z,14.59
2022-10-13T12:34:27.545Z,14.62
2022-10-13T12:37:33.782Z,14.63
2022-10-13T12:40:38.181Z,14.64
2022-10-13T12:43:41.893Z,14.75
2022-10-13T12:46:46.515Z,14.88
2022-10-13T12:49:49.442Z,15.03
2022-10-13T12:52:54.486Z,15.27
2022-10-13T12:56:00.796Z,15.52
2022-10-13T12:59:04.815Z,15.59
2022-10-13T13:02:25.450Z,15.65
2022-10-13T13:05:32.658Z,15.66
2022-10-13T13:08:39.158Z,15.41
2022-10-13T13:11:43.410Z,15.20
2022-10-13T13:14:49.606Z,15.22
2022-10-13T13:17:58.297Z,15.18
2022-10-13T13:21:02.173Z,15.18
2022-10-13T13:24:16.219Z,15.13
2022-10-13T13:27:37.518Z,15.03
2022-10-13T13:30:40.572Z,14.97
2022-10-13T13:33:43.504Z,14.92
2022-10-13T13:36:46.797Z,14.86
2022-10-13T13:39:49.787Z,14.82
2022-10-13T13:42:54.694Z,14.79
2022-10-13T13:45:58.538Z,14.76
2022-10-13T13:49:02.227Z,14.71
2022-10-13T13:52:05.204Z,14.71
2022-10-13T13:55:09.056Z,14.63
2022-10-13T13:58:13.404Z,14.64
2022-10-13T14:01:16.483Z,14.56
2022-10-13T14:04:19.422Z,14.57
2022-10-13T14:07:22.927Z,14.57
2022-10-13T14:10:27.583Z,14.56
2022-10-13T14:13:31.884Z,14.51
2022-10-13T14:16:34.753Z,14.53
2022-10-13T14:19:43.272Z,14.52
2022-10-13T14:22:46.151Z,14.51
2022-10-13T14:25:49.734Z,14.46
2022-10-13T14:28:55.022Z,14.44
2022-10-13T14:31:57.904Z,14.46
2022-10-13T14:35:01.069Z,14.50
2022-10-13T14:38:03.917Z,14.50
2022-10-13T14:41:08.056Z,14.52
2022-10-13T14:44:13.570Z,14.47
2022-10-13T14:47:21.377Z,14.50
2022-10-13T14:50:24.420Z,14.49
2022-10-13T14:53:33.869Z,14.52
2022-10-13T14:56:37.472Z,14.53
2022-10-13T14:59:41.770Z,14.55
2022-10-13T15:02:44.774Z,14.55
2022-10-13T15:05:47.765Z,14.58
2022-10-13T15:08:53.989Z,14.48
2022-10-13T15:11:59.801Z,14.51
2022-10-13T15:15:04.967Z,14.43
2022-10-13T15:18:07.979Z,14.48
2022-10-13T15:21:11.081Z,14.49
2022-10-13T15:24:14.074Z,14.38
2022-10-13T15:27:18.460Z,14.37
2022-10-13T15:30:22.740Z,14.34
2022-10-13T15:33:25.561Z,14.31
2022-10-13T15:36:28.447Z,14.21
2022-10-13T15:39:31.427Z,14.24
2022-10-13T15:42:34.348Z,14.23
2022-10-13T15:45:38.893Z,14.20
2022-10-13T15:48:41.850Z,14.11
2022-10-13T15:51:44.986Z,14.10
2022-10-13T15:54:51.314Z,14.01
2022-10-13T15:57:54.527Z,13.96
2022-10-13T16:00:58.878Z,13.88
2022-10-13T16:04:01.888Z,13.91
2022-10-13T16:07:04.995Z,13.74
2022-10-13T16:10:08.791Z,13.70
2022-10-13T16:13:15.793Z,13.74
2022-10-13T16:16:20.923Z,13.63
2022-10-13T16:19:24.102Z,13.63
2022-10-13T16:22:27.084Z,13.58
2022-10-13T16:25:31.972Z,13.56
2022-10-13T16:28:35.326Z,13.59
2022-10-13T16:31:39.667Z,13.45
2022-10-13T16:34:42.578Z,13.49
2022-10-13T16:37:45.585Z,13.35
2022-10-13T16:40:48.495Z,13.18
2022-10-13T16:43:51.639Z,13.39
2022-10-13T16:46:56.967Z,13.25
2022-10-13T16:50:00.088Z,13.41
2022-10-13T16:53:03.015Z,13.52
2022-10-13T16:56:06.926Z,13.46
2022-10-13T16:59:11.417Z,13.38
2022-10-13T17:02:15.930Z,13.31
2022-10-13T17:05:18.762Z,13.46
2022-10-13T17:08:21.619Z,13.47
2022-10-13T17:11:27.773Z,13.42
2022-10-13T17:14:30.657Z,13.48
2022-10-13T17:17:34.978Z,13.54
2022-10-13T17:20:37.802Z,13.28
2022-10-13T17:23:45.875Z,13.20
2022-10-13T17:26:51.563Z,13.18
2022-10-13T17:29:54.770Z,13.28
2022-10-13T17:33:04.034Z,13.34
2022-10-13T17:36:09.638Z,13.40
2022-10-13T17:39:12.645Z,13.41
2022-10-13T17:42:15.535Z,13.35
2022-10-13T17:45:19.621Z,13.25
2022-10-13T17:48:24.370Z,13.13
2022-10-13T17:51:27.893Z,13.30
2022-10-13T17:54:30.742Z,13.36
2022-10-13T17:57:33.710Z,13.36
2022-10-13T18:01:07.606Z,13.47
2022-10-13T18:04:05.613Z,13.39
2022-10-13T18:07:08.915Z,13.39
2022-10-13T18:10:12.948Z,13.41
2022-10-13T18:13:16.236Z,13.40
2022-10-13T18:16:21.436Z,13.37
2022-10-13T18:19:25.698Z,13.30
2022-10-13T18:22:28.764Z,13.22
2022-10-13T18:25:35.622Z,13.20
2022-10-13T18:28:40.383Z,13.05
2022-10-13T18:31:44.404Z,12.89
2022-10-13T18:34:48.764Z,12.91
2022-10-13T18:37:52.649Z,12.92
2022-10-13T18:41:00.907Z,12.77
2022-10-13T18:44:04.061Z,12.73
2022-10-13T18:47:07.170Z,12.71
2022-10-13T18:50:12.058Z,12.76
2022-10-13T18:53:15.103Z,12.72
2022-10-13T18:56:22.197Z,12.56
2022-10-13T18:59:25.521Z,12.62
2022-10-13T19:02:28.430Z,12.65
2022-10-13T19:05:33.039Z,12.63
2022-10-13T19:08:36.190Z,12.61
2022-10-13T19:11:39.335Z,12.45
2022-10-13T19:14:42.159Z,12.48
2022-10-13T19:17:45.403Z,12.42
2022-10-13T19:20:49.664Z,12.53
2022-10-13T19:23:52.995Z,12.53
2022-10-13T19:26:56.246Z,12.49
2022-10-13T19:29:59.814Z,12.35
2022-10-13T19:33:02.692Z,12.39
2022-10-13T19:36:11.090Z,12.35
2022-10-13T19:39:18.382Z,12.37
2022-10-13T19:42:21.204Z,12.46
2022-10-13T19:45:24.182Z,12.27
2022-10-13T19:48:27.841Z,12.12
2022-10-13T19:51:33.068Z,12.27
2022-10-13T19:54:37.146Z,12.29
2022-10-13T19:57:40.325Z,12.35
2022-10-13T20:00:43.603Z,12.45
2022-10-13T20:03:46.777Z,12.47
2022-10-13T20:06:52.182Z,12.49
2022-10-13T20:09:55.101Z,12.51
2022-10-13T20:12:57.955Z,12.59
2022-10-13T20:16:05.281Z,12.57
2022-10-13T20:19:08.495Z,12.56
2022-10-13T20:22:12.858Z,12.54
2022-10-13T20:25:19.598Z,12.53
2022-10-13T20:28:22.517Z,12.50
2022-10-13T20:31:25.492Z,12.43
2022-10-13T20:34:28.810Z,12.48
2022-10-13T20:37:33.836Z,12.45
2022-10-13T20:40:36.793Z,12.54
2022-10-13T20:43:39.786Z,12.49
2022-10-13T20:46:42.607Z,12.45
2022-10-13T20:49:45.578Z,12.28
2022-10-13T20:52:52.598Z,12.39
2022-10-13T20:55:59.260Z,12.43
2022-10-13T20:59:03.553Z,12.37
2022-10-13T21:02:06.668Z,12.36
2022-10-13T21:05:09.879Z,12.36
2022-10-13T21:08:15.057Z,12.26
2022-10-13T21:11:20.167Z,12.32
2022-10-13T21:14:23.031Z,12.18
2022-10-13T21:17:25.886Z,12.02
2022-10-13T21:20:28.788Z,12.02
2022-10-13T21:23:33.207Z,12.15
2022-10-13T21:26:36.991Z,12.21
2022-10-13T21:29:39.930Z,12.21
2022-10-13T21:32:42.842Z,12.12
2022-10-13T21:35:45.674Z,12.28
2022-10-13T21:38:52.745Z,12.14
2022-10-13T21:41:55.614Z,12.16
2022-10-13T21:45:00.507Z,12.13
2022-10-13T21:48:03.338Z,12.12
2022-10-13T21:51:14.492Z,12.15
2022-10-13T21:54:18.667Z,12.07
2022-10-13T21:57:22.524Z,12.19
2022-10-13T22:00:25.801Z,12.15
2022-10-13T22:03:28.883Z,12.24
2022-10-13T22:06:34.389Z,12.18
2022-10-13T22:09:38.696Z,12.17
2022-10-13T22:12:41.581Z,12.17
2022-10-13T22:15:44.387Z,12.06
2022-10-13T22:18:53.370Z,12.02
2022-10-13T22:21:56.216Z,12.08
2022-10-13T22:25:03.959Z,11.92
2022-10-13T22:28:08.346Z,11.89
2022-10-13T22:31:13.273Z,11.86
2022-10-13T22:34:16.899Z,11.86
2022-10-13T22:37:20.054Z,11.86
2022-10-13T22:40:24.480Z,11.78
2022-10-13T22:43:27.306Z,11.75
2022-10-13T22:46:33.738Z,11.70
2022-10-13T22:49:36.719Z,11.66
2022-10-13T22:52:39.574Z,11.65
2022-10-13T22:55:43.953Z,11.49
2022-10-13T22:58:50.862Z,11.52
2022-10-13T23:01:53.699Z,11.59
2022-10-13T23:04:56.639Z,11.65
2022-10-13T23:07:59.546Z,11.56
2022-10-13T23:11:04.241Z,11.42
2022-10-13T23:14:07.221Z,11.46
2022-10-13T23:17:10.088Z,11.50
2022-10-13T23:20:13.348Z,11.39
2022-10-13T23:23:16.243Z,11.41
2022-10-13T23:26:20.545Z,11.27
2022-10-13T23:29:23.586Z,11.29
2022-10-13T23:32:26.519Z,11.24
2022-10-13T23:35:29.350Z,11.19
2022-10-13T23:38:33.103Z,11.26
2022-10-13T23:41:38.601Z,10.96
2022-10-13T23:44:41.466Z,10.79
2022-10-13T23:47:44.291Z,10.92
2022-10-13T23:50:47.171Z,10.94
2022-10-13T23:53:50.141Z,10.99
2022-10-13T23:56:54.710Z,11.02
2022-10-13T23:59:57.527Z,11.03
